Time;durP1;ratioP1;P1;durP2;ratioP2;P2;SDS_P1;SDS_P2;PMS_P1;PMS_P2;Temp;Humidity;BMP_temperature;BMP_pressure;BME280_temperature;BME280_humidity;BME280_pressure;Samples;Min_cycle;Max_cycle;Signal;HPM_P1;HPM_P2
2019/09/15 00:00:54;;;;;;;12.5;11.2;;;;;;;;;;;;;
2019/09/15 00:03:10;;;;;;;16;12.7;;;;;;;;;;;;;
2019/09/15 00:05:32;;;;;;;13.6;12.4;;;;;;;;;;;;;
2019/09/15 00:07:57;;;;;;;15.3;13.7;;;;;;;;;;;;;
2019/09/15 00:10:22;;;;;;;15;13.5;;;;;;;;;;;;;
2019/09/15 00:12:47;;;;;;;14.7;13.2;;;;;;;;;;;;;
2019/09/15 00:15:12;;;;;;;14.5;13.1;;;;;;;;;;;;;
2019/09/15 00:17:37;;;;;;;14.3;12.9;;;;;;;;;;;;;
2019/09/15 00:20:02;;;;;;;14.5;13.1;;;;;;;;;;;;;
2019/09/15 00:22:28;;;;;;;15.2;13.8;;;;;;;;;;;;;
2019/09/15 00:24:53;;;;;;;14.4;13;;;;;;;;;;;;;
2019/09/15 00:27:18;;;;;;;14.2;12.8;;;;;;;;;;;;;
2019/09/15 00:29:43;;;;;;;14.2;12.7;;;;;;;;;;;;;
2019/09/15 00:32:08;;;;;;;14.8;13.4;;;;;;;;;;;;;
2019/09/15 00:34:33;;;;;;;13.5;12.3;;;;;;;;;;;;;
2019/09/15 00:36:58;;;;;;;13.7;12.5;;;;;;;;;;;;;
2019/09/15 00:39:24;;;;;;;15.1;13.6;;;;;;;;;;;;;
2019/09/15 00:41:49;;;;;;;16.2;14.8;;;;;;;;;;;;;
2019/09/15 00:44:14;;;;;;;15.9;14.5;;;;;;;;;;;;;
2019/09/15 00:46:39;;;;;;;15.5;14.1;;;;;;;;;;;;;
2019/09/15 00:49:04;;;;;;;15.4;14.1;;;;;;;;;;;;;
2019/09/15 00:51:29;;;;;;;15.1;13.7;;;;;;;;;;;;;
2019/09/15 00:53:54;;;;;;;16;14.5;;;;;;;;;;;;;
2019/09/15 00:56:19;;;;;;;15.6;14.2;;;;;;;;;;;;;
2019/09/15 00:58:44;;;;;;;16.1;14.6;;;;;;;;;;;;;
2019/09/15 01:01:09;;;;;;;16;14.6;;;;;;;;;;;;;
2019/09/15 01:03:34;;;;;;;17.6;15.9;;;;;;;;;;;;;
2019/09/15 01:06:00;;;;;;;17.9;16.2;;;;;;;;;;;;;
2019/09/15 01:08:25;;;;;;;17.7;16.1;;;;;;;;;;;;;
2019/09/15 01:10:50;;;;;;;17.1;15.6;;;;;;;;;;;;;
2019/09/15 01:13:15;;;;;;;18.6;17;;;;;;;;;;;;;
2019/09/15 01:15:40;;;;;;;18.4;16.8;;;;;;;;;;;;;
2019/09/15 01:18:05;;;;;;;18.4;16.7;;;;;;;;;;;;;
2019/09/15 01:20:30;;;;;;;18.2;16.6;;;;;;;;;;;;;
2019/09/15 01:22:55;;;;;;;19.9;18;;;;;;;;;;;;;
2019/09/15 01:25:20;;;;;;;18.9;17.2;;;;;;;;;;;;;
2019/09/15 01:27:45;;;;;;;17.5;15.9;;;;;;;;;;;;;
2019/09/15 01:30:11;;;;;;;17.7;16;;;;;;;;;;;;;
2019/09/15 01:32:36;;;;;;;17.1;15.6;;;;;;;;;;;;;
2019/09/15 01:35:01;;;;;;;16.9;15.4;;;;;;;;;;;;;
2019/09/15 01:37:26;;;;;;;16.4;14.8;;;;;;;;;;;;;
2019/09/15 01:39:51;;;;;;;17.5;16;;;;;;;;;;;;;
2019/09/15 01:42:16;;;;;;;15.4;14;;;;;;;;;;;;;
2019/09/15 01:44:41;;;;;;;16.3;14.8;;;;;;;;;;;;;
2019/09/15 01:47:07;;;;;;;16.8;15.2;;;;;;;;;;;;;
2019/09/15 01:49:31;;;;;;;16.9;15.2;;;;;;;;;;;;;
2019/09/15 01:51:56;;;;;;;16.2;14.7;;;;;;;;;;;;;
2019/09/15 01:54:21;;;;;;;16.9;15.2;;;;;;;;;;;;;
2019/09/15 01:56:46;;;;;;;15.7;14.3;;;;;;;;;;;;;
2019/09/15 01:59:12;;;;;;;15.6;14.1;;;;;;;;;;;;;
2019/09/15 02:01:37;;;;;;;16.1;14.6;;;;;;;;;;;;;
2019/09/15 02:04:02;;;;;;;15.7;14.3;;;;;;;;;;;;;
2019/09/15 02:06:27;;;;;;;15.4;14;;;;;;;;;;;;;
2019/09/15 02:08:52;;;;;;;14.7;13.3;;;;;;;;;;;;;
2019/09/15 02:11:17;;;;;;;15.3;13.8;;;;;;;;;;;;;
2019/09/15 02:13:42;;;;;;;14.7;13.3;;;;;;;;;;;;;
2019/09/15 02:16:07;;;;;;;15.3;13.9;;;;;;;;;;;;;
2019/09/15 02:18:32;;;;;;;15;13.5;;;;;;;;;;;;;
2019/09/15 02:20:59;;;;;;;14.5;13.1;;;;;;;;;;;;;
2019/09/15 02:23:22;;;;;;;14.5;13.2;;;;;;;;;;;;;
2019/09/15 02:25:47;;;;;;;13.7;12.5;;;;;;;;;;;;;
2019/09/15 02:28:12;;;;;;;14.6;13.3;;;;;;;;;;;;;
2019/09/15 02:30:38;;;;;;;14.9;13.6;;;;;;;;;;;;;
2019/09/15 02:33:03;;;;;;;14.6;13.2;;;;;;;;;;;;;
2019/09/15 02:35:28;;;;;;;14.9;13.6;;;;;;;;;;;;;
2019/09/15 02:37:53;;;;;;;14.2;12.9;;;;;;;;;;;;;
2019/09/15 02:40:18;;;;;;;12.8;11.7;;;;;;;;;;;;;
2019/09/15 02:42:43;;;;;;;13.6;12.4;;;;;;;;;;;;;
2019/09/15 02:45:08;;;;;;;14.1;12.8;;;;;;;;;;;;;
2019/09/15 02:47:33;;;;;;;14.4;13.1;;;;;;;;;;;;;
2019/09/15 02:49:58;;;;;;;13.9;12.6;;;;;;;;;;;;;
2019/09/15 02:52:23;;;;;;;14.2;12.8;;;;;;;;;;;;;
2019/09/15 02:54:48;;;;;;;14.3;12.9;;;;;;;;;;;;;
2019/09/15 02:57:13;;;;;;;14.6;13.2;;;;;;;;;;;;;
2019/09/15 02:59:38;;;;;;;13.8;12.6;;;;;;;;;;;;;
2019/09/15 03:02:04;;;;;;;14.9;13.5;;;;;;;;;;;;;
2019/09/15 03:04:29;;;;;;;15.3;13.8;;;;;;;;;;;;;
2019/09/15 03:06:54;;;;;;;16.1;14.5;;;;;;;;;;;;;
2019/09/15 03:09:19;;;;;;;17.4;15.8;;;;;;;;;;;;;
2019/09/15 03:11:44;;;;;;;17.8;16.2;;;;;;;;;;;;;
2019/09/15 03:14:09;;;;;;;15.9;14.4;;;;;;;;;;;;;
2019/09/15 03:16:34;;;;;;;16;14.5;;;;;;;;;;;;;
2019/09/15 03:18:59;;;;;;;15;13.5;;;;;;;;;;;;;
2019/09/15 03:21:24;;;;;;;14.4;13;;;;;;;;;;;;;
2019/09/15 03:23:50;;;;;;;14.4;13.1;;;;;;;;;;;;;
2019/09/15 03:26:15;;;;;;;14.9;13.4;;;;;;;;;;;;;
2019/09/15 03:28:40;;;;;;;13.9;12.6;;;;;;;;;;;;;
2019/09/15 03:31:05;;;;;;;13.4;12.2;;;;;;;;;;;;;
2019/09/15 03:33:30;;;;;;;13.6;12.3;;;;;;;;;;;;;
2019/09/15 03:35:55;;;;;;;13.4;12;;;;;;;;;;;;;
2019/09/15 03:38:20;;;;;;;12.9;11.7;;;;;;;;;;;;;
2019/09/15 03:40:45;;;;;;;12.8;11.6;;;;;;;;;;;;;
2019/09/15 03:43:10;;;;;;;12.7;11.4;;;;;;;;;;;;;
2019/09/15 03:45:36;;;;;;;13.3;11.9;;;;;;;;;;;;;
2019/09/15 03:48:01;;;;;;;14.5;13.2;;;;;;;;;;;;;
2019/09/15 03:50:26;;;;;;;13.9;12.6;;;;;;;;;;;;;
2019/09/15 03:52:51;;;;;;;14.1;12.8;;;;;;;;;;;;;
2019/09/15 03:55:16;;;;;;;14.4;13.2;;;;;;;;;;;;;
2019/09/15 03:57:41;;;;;;;13.6;12.4;;;;;;;;;;;;;
2019/09/15 04:02:27;;;;;;;11.8;10.8;;;;;;;14.47;94.7959;969.5377;;;;
2019/09/15 04:04:52;;;;;;;12.3;11;;;;;;;14.38;94.90527;969.5162;;;;
2019/09/15 04:07:17;;;;;;;11.9;10.8;;;;;;;14.41;94.65625;969.4938;;;;
2019/09/15 04:09:42;;;;;;;10.9;9.9;;;;;;;14.45;93.74805;969.4735;;;;
2019/09/15 04:12:07;;;;;;;10.9;10;;;;;;;14.4;94.43164;969.5281;;;;
2019/09/15 04:14:32;;;;;;;10.5;9.6;;;;;;;14.34;94.65234;969.5114;;;;
2019/09/15 04:16:58;;;;;;;10.9;9.9;;;;;;;14.4;94.61719;969.4822;;;;
2019/09/15 04:19:23;;;;;;;11.7;10.6;;;;;;;14.46;94.2959;969.4794;;;;
2019/09/15 04:21:48;;;;;;;12.2;11.1;;;;;;;14.33;95.46094;969.4986;;;;
2019/09/15 04:24:13;;;;;;;14.1;12.8;;;;;;;14.26;96.24805;969.4629;;;;
2019/09/15 04:26:38;;;;;;;16.3;14.7;;;;;;;14.21;97.59375;969.5244;;;;
2019/09/15 04:29:03;;;;;;;21.1;14.7;;;;;;;14.2;98.29102;969.4772;;;;
2019/09/15 04:31:28;;;;;;;16.6;14.8;;;;;;;14.36;97.32813;969.5192;;;;
2019/09/15 04:33:53;;;;;;;20;16.2;;;;;;;14.19;98.4834;969.5271;;;;
2019/09/15 04:36:18;;;;;;;18.5;16;;;;;;;14.2;98.2998;969.5148;;;;
2019/09/15 04:38:43;;;;;;;44.4;17.8;;;;;;;14.1;99.34766;969.4941;;;;
2019/09/15 04:41:08;;;;;;;26.9;19.8;;;;;;;14.02;100;969.4299;;;;
2019/09/15 04:43:33;;;;;;;26.6;19.6;;;;;;;14.06;100;969.4703;;;;
2019/09/15 04:45:58;;;;;;;24.6;21.1;;;;;;;14;100;969.4805;;;;
2019/09/15 04:48:24;;;;;;;37.1;21.1;;;;;;;13.96;100;969.5286;;;;
2019/09/15 04:50:49;;;;;;;42.9;22.4;;;;;;;13.89;100;969.5075;;;;
2019/09/15 04:53:14;;;;;;;36.2;21.6;;;;;;;13.94;100;969.4628;;;;
2019/09/15 04:55:39;;;;;;;63.9;21.7;;;;;;;14;100;969.4724;;;;
2019/09/15 04:58:04;;;;;;;60.9;22.1;;;;;;;13.89;100;969.5345;;;;
2019/09/15 05:00:29;;;;;;;52.1;22.9;;;;;;;13.91;100;969.5076;;;;
2019/09/15 05:02:54;;;;;;;42.2;22.9;;;;;;;13.96;100;969.4565;;;;
2019/09/15 05:05:19;;;;;;;33.4;21.2;;;;;;;14.02;100;969.4677;;;;
2019/09/15 05:07:45;;;;;;;41.3;24.9;;;;;;;13.95;100;969.3933;;;;
2019/09/15 05:10:10;;;;;;;37.4;25.9;;;;;;;13.71;100;969.4412;;;;
2019/09/15 05:12:35;;;;;;;31.6;24.7;;;;;;;13.8;100;969.4252;;;;
2019/09/15 05:15:00;;;;;;;23.3;21;;;;;;;14.04;100;969.4222;;;;
2019/09/15 05:17:25;;;;;;;22.6;20.5;;;;;;;14.15;100;969.3903;;;;
2019/09/15 05:19:50;;;;;;;23.8;21.6;;;;;;;14.08;100;969.4009;;;;
2019/09/15 05:22:15;;;;;;;21.8;19.9;;;;;;;14.06;100;969.3728;;;;
2019/09/15 05:24:55;;;;;;;20.8;18.9;;;;;;;13.97;100;969.3823;;;;
2019/09/15 05:27:20;;;;;;;20.8;18.9;;;;;;;14.02;99.76953;969.4193;;;;
2019/09/15 05:29:46;;;;;;;22;19.9;;;;;;;13.95;99.79785;969.4473;;;;
2019/09/15 05:32:10;;;;;;;20.8;19;;;;;;;14.08;99.53809;969.4451;;;;
2019/09/15 05:34:36;;;;;;;20.6;18.7;;;;;;;14.04;98.57715;969.514;;;;
2019/09/15 05:37:01;;;;;;;20.3;18.4;;;;;;;14.08;98.18066;969.4846;;;;
2019/09/15 05:39:26;;;;;;;19.4;17.6;;;;;;;13.98;98.54199;969.5464;;;;
2019/09/15 05:41:51;;;;;;;18.6;17;;;;;;;14.03;98.40137;969.5344;;;;
2019/09/15 05:44:16;;;;;;;18.8;17.1;;;;;;;14.01;98.25586;969.5945;;;;
2019/09/15 05:46:41;;;;;;;18.4;16.7;;;;;;;14.08;97.70508;969.5574;;;;
2019/09/15 05:49:06;;;;;;;17.9;16.2;;;;;;;14.04;97.5791;969.5853;;;;
2019/09/15 05:51:31;;;;;;;17.7;16;;;;;;;13.92;97.20508;969.5574;;;;
2019/09/15 05:53:56;;;;;;;18.3;16.5;;;;;;;13.87;98.3418;969.561;;;;
2019/09/15 05:56:21;;;;;;;17.9;16.3;;;;;;;13.93;98.10059;969.5344;;;;
2019/09/15 05:58:46;;;;;;;16.7;15.2;;;;;;;14.03;97.99512;969.505;;;;
2019/09/15 06:01:12;;;;;;;16.3;14.7;;;;;;;14.04;97.39355;969.4272;;;;
2019/09/15 06:03:37;;;;;;;25;16.3;;;;;;;13.99;96.9082;969.4161;;;;
2019/09/15 06:06:02;;;;;;;17.7;15.8;;;;;;;13.97;97.25;969.4328;;;;
2019/09/15 06:08:27;;;;;;;16.6;15.1;;;;;;;14.08;96.60352;969.4419;;;;
2019/09/15 06:10:52;;;;;;;23.8;15.9;;;;;;;14.02;97.05566;969.4242;;;;
2019/09/15 06:13:17;;;;;;;22.8;15.6;;;;;;;13.97;97.04297;969.4774;;;;
2019/09/15 06:15:43;;;;;;;17.1;15.6;;;;;;;14.04;97.46484;969.4436;;;;
2019/09/15 06:18:08;;;;;;;16.9;15.3;;;;;;;14.06;97.31836;969.4572;;;;
2019/09/15 06:20:33;;;;;;;15.4;14.1;;;;;;;14.16;96.77148;969.4897;;;;
2019/09/15 06:22:58;;;;;;;14.6;13.3;;;;;;;14.31;96.13184;969.4631;;;;
2019/09/15 06:25:23;;;;;;;16.1;14.7;;;;;;;14.16;96.91113;969.483;;;;
2019/09/15 06:27:48;;;;;;;16;14.6;;;;;;;14.29;96.02148;969.4955;;;;
2019/09/15 06:30:13;;;;;;;15.5;14.2;;;;;;;14.24;96.2998;969.4971;;;;
2019/09/15 06:32:38;;;;;;;15.8;14.4;;;;;;;14.23;96.28906;969.5385;;;;
2019/09/15 06:35:04;;;;;;;13.9;12.5;;;;;;;14.37;95.51953;969.5449;;;;
2019/09/15 06:37:29;;;;;;;13.5;12.2;;;;;;;14.26;95.01758;969.5292;;;;
2019/09/15 06:39:54;;;;;;;12.8;11.6;;;;;;;14.16;96.0752;969.5667;;;;
2019/09/15 06:42:19;;;;;;;12.9;11.9;;;;;;;14.07;96.28613;969.5442;;;;
2019/09/15 06:44:44;;;;;;;12.2;11.1;;;;;;;14.19;95.46484;969.5066;;;;
2019/09/15 06:47:09;;;;;;;10.7;9.9;;;;;;;14.25;95.52637;969.4767;;;;
2019/09/15 06:49:34;;;;;;;13.4;12.1;;;;;;;13.95;96.42285;969.5514;;;;
2019/09/15 06:51:59;;;;;;;11.7;10.8;;;;;;;14.15;96.39844;969.462;;;;
2019/09/15 06:54:24;;;;;;;11.3;10.4;;;;;;;14.28;95.46484;969.4429;;;;
2019/09/15 06:56:49;;;;;;;12;11;;;;;;;14.27;95.97168;969.4654;;;;
2019/09/15 06:59:15;;;;;;;12.5;11.5;;;;;;;14.27;95.87891;969.4408;;;;
2019/09/15 07:01:40;;;;;;;11.1;10.3;;;;;;;14.44;94.96387;969.4222;;;;
2019/09/15 07:04:05;;;;;;;14.2;12.9;;;;;;;14.14;95.20117;969.5219;;;;
2019/09/15 07:06:30;;;;;;;12.9;11.9;;;;;;;14.36;95.35254;969.5386;;;;
2019/09/15 07:08:55;;;;;;;13.8;12.7;;;;;;;14.42;95.08789;969.5795;;;;
2019/09/15 07:11:20;;;;;;;13.9;12.8;;;;;;;14.54;94.98535;969.6262;;;;
2019/09/15 07:13:45;;;;;;;13.2;12.1;;;;;;;14.6;95.13867;969.6089;;;;
2019/09/15 07:16:10;;;;;;;13.2;12.1;;;;;;;14.74;94.28613;969.6384;;;;
2019/09/15 07:18:35;;;;;;;14.5;13.3;;;;;;;14.74;94.0293;969.6359;;;;
2019/09/15 07:21:00;;;;;;;13.2;12.1;;;;;;;14.86;93.67188;969.6185;;;;
2019/09/15 07:23:25;;;;;;;13.2;12.1;;;;;;;14.89;94.19141;969.6117;;;;
2019/09/15 07:25:51;;;;;;;13;11.9;;;;;;;14.99;93.48047;969.626;;;;
2019/09/15 07:28:16;;;;;;;14;12.8;;;;;;;14.83;94.29395;969.7567;;;;
2019/09/15 07:30:42;;;;;;;14.4;13.3;;;;;;;14.94;94.02637;969.7506;;;;
2019/09/15 07:33:07;;;;;;;14.2;13;;;;;;;14.99;94.34082;969.7755;;;;
2019/09/15 07:35:32;;;;;;;13.6;12.5;;;;;;;15.11;93.80566;969.7595;;;;
2019/09/15 07:37:58;;;;;;;15;13.8;;;;;;;14.96;94.66992;969.7469;;;;
2019/09/15 07:40:23;;;;;;;13.8;12.6;;;;;;;15.11;94.21484;969.7242;;;;
2019/09/15 07:42:48;;;;;;;14.6;13.4;;;;;;;15.24;94.05762;969.6961;;;;
2019/09/15 07:45:13;;;;;;;15;13.7;;;;;;;15.35;93.625;969.6947;;;;
2019/09/15 07:47:38;;;;;;;14.2;13;;;;;;;15.41;93.47559;969.7081;;;;
2019/09/15 07:50:03;;;;;;;15.9;14.6;;;;;;;15.4;93.76465;969.6929;;;;
2019/09/15 07:52:28;;;;;;;13.9;12.8;;;;;;;15.53;92.64063;969.6279;;;;
2019/09/15 07:54:54;;;;;;;14.3;13.1;;;;;;;15.55;93.25;969.5934;;;;
2019/09/15 07:57:19;;;;;;;14.1;13;;;;;;;15.77;92.27246;969.5686;;;;
2019/09/15 07:59:44;;;;;;;15.5;14.2;;;;;;;15.83;92.09766;969.5111;;;;
2019/09/15 08:02:09;;;;;;;15.4;14.1;;;;;;;15.86;92.25488;969.4877;;;;
2019/09/15 08:04:34;;;;;;;17.8;16.4;;;;;;;15.7;93.28223;969.4378;;;;
2019/09/15 08:07:00;;;;;;;16.3;14.9;;;;;;;15.88;92.5498;969.4861;;;;
2019/09/15 08:09:25;;;;;;;16.7;15.3;;;;;;;16.03;93.16699;969.4796;;;;
2019/09/15 08:11:50;;;;;;;16.4;15.1;;;;;;;16.14;92.36133;969.5352;;;;
2019/09/15 08:14:16;;;;;;;17.5;16.1;;;;;;;16.34;92.05371;969.4942;;;;
2019/09/15 08:16:41;;;;;;;18.6;17.1;;;;;;;16.45;92.11133;969.4312;;;;
2019/09/15 08:19:06;;;;;;;20.5;18.7;;;;;;;16.58;92.39551;969.4247;;;;
2019/09/15 08:21:32;;;;;;;21.8;19.9;;;;;;;16.6;91.68945;969.3695;;;;
2019/09/15 08:23:58;;;;;;;23.2;21.2;;;;;;;16.64;91.70898;969.3933;;;;
2019/09/15 08:26:23;;;;;;;23.9;21.7;;;;;;;16.55;92.21484;969.3733;;;;
2019/09/15 08:28:48;;;;;;;24.7;22.7;;;;;;;16.61;92.54199;969.36;;;;
2019/09/15 08:31:13;;;;;;;25.1;22.9;;;;;;;16.68;92.53516;969.3879;;;;
2019/09/15 08:33:38;;;;;;;22.8;20.8;;;;;;;16.77;92.03906;969.3711;;;;
2019/09/15 08:36:04;;;;;;;24.4;22.3;;;;;;;16.76;92.9707;969.3694;;;;
2019/09/15 08:38:29;;;;;;;22.1;20.3;;;;;;;16.79;92.5332;969.3063;;;;
2019/09/15 08:40:54;;;;;;;23.2;21.4;;;;;;;16.85;92.59277;969.3423;;;;
2019/09/15 08:43:19;;;;;;;21.4;19.6;;;;;;;16.97;91.7998;969.2908;;;;
2019/09/15 08:45:44;;;;;;;22.5;20.6;;;;;;;17.14;91.1709;969.3082;;;;
2019/09/15 08:48:09;;;;;;;20.5;18.5;;;;;;;17.33;89.80762;969.3477;;;;
2019/09/15 08:50:34;;;;;;;20.2;18.5;;;;;;;17.44;89.98145;969.3842;;;;
2019/09/15 08:52:59;;;;;;;19.8;18.1;;;;;;;17.51;89.97461;969.3434;;;;
2019/09/15 08:55:24;;;;;;;18.7;17.1;;;;;;;17.6;89.47656;969.3655;;;;
2019/09/15 08:57:49;;;;;;;17.5;16.1;;;;;;;17.7;89.73047;969.3621;;;;
2019/09/15 09:00:14;;;;;;;18.5;16.9;;;;;;;17.83;89.22949;969.3508;;;;
2019/09/15 09:02:40;;;;;;;17.4;15.9;;;;;;;17.84;89.54883;969.3856;;;;
2019/09/15 09:05:04;;;;;;;17.4;15.9;;;;;;;17.93;88.88672;969.3887;;;;
2019/09/15 09:07:30;;;;;;;17.7;16.3;;;;;;;18.08;89.08105;969.3755;;;;
2019/09/15 09:09:55;;;;;;;17.5;16;;;;;;;18.08;88.56641;969.4003;;;;
2019/09/15 09:12:20;;;;;;;15.7;14.5;;;;;;;18.18;88.51563;969.3801;;;;
2019/09/15 09:14:45;;;;;;;15.6;14.4;;;;;;;18.22;88.23242;969.3158;;;;
2019/09/15 09:17:10;;;;;;;15.6;14.2;;;;;;;18.21;88.41797;969.3027;;;;
2019/09/15 09:19:36;;;;;;;15.8;14.6;;;;;;;18.31;88.11133;969.2422;;;;
2019/09/15 09:22:01;;;;;;;15.6;14.1;;;;;;;18.37;88.30957;969.1823;;;;
2019/09/15 09:24:26;;;;;;;14.4;13;;;;;;;18.56;87.99512;969.187;;;;
2019/09/15 09:26:51;;;;;;;14.3;13.1;;;;;;;18.59;87.50879;969.2399;;;;
2019/09/15 09:29:16;;;;;;;14.9;13.6;;;;;;;18.64;87.48438;969.2112;;;;
2019/09/15 09:31:41;;;;;;;14.6;13.3;;;;;;;18.73;87.50195;969.1995;;;;
2019/09/15 09:34:06;;;;;;;15;13.6;;;;;;;18.92;87.45703;969.2386;;;;
2019/09/15 09:36:31;;;;;;;11.2;10.2;;;;;;;19.21;85.56738;969.1945;;;;
2019/09/15 09:38:56;;;;;;;12.1;11.1;;;;;;;19.13;86.51172;969.1473;;;;
2019/09/15 09:41:21;;;;;;;11.9;10.8;;;;;;;19.25;85.85547;969.1515;;;;
2019/09/15 09:43:46;;;;;;;14.3;13;;;;;;;19.36;85.85449;969.1558;;;;
2019/09/15 09:46:12;;;;;;;10.9;9.9;;;;;;;19.45;85.22461;969.1682;;;;
2019/09/15 09:48:37;;;;;;;9.8;8.8;;;;;;;19.66;83.85547;969.0814;;;;
2019/09/15 09:51:02;;;;;;;10;9.1;;;;;;;19.7;84.07422;969.1119;;;;
2019/09/15 09:53:27;;;;;;;7.5;6.8;;;;;;;19.93;82.87402;969.0181;;;;
2019/09/15 09:55:52;;;;;;;7.4;6.7;;;;;;;19.99;82.58984;969.0039;;;;
2019/09/15 09:58:17;;;;;;;8.4;6.9;;;;;;;20.08;82.00488;969.0178;;;;
2019/09/15 10:00:42;;;;;;;9.8;7.6;;;;;;;20.01;82.21484;969.0095;;;;
2019/09/15 10:03:07;;;;;;;7.9;7.1;;;;;;;20.06;82.09766;969.035;;;;
2019/09/15 10:05:32;;;;;;;6.6;6;;;;;;;20.12;81.56836;968.9761;;;;
2019/09/15 10:07:58;;;;;;;7.6;6.2;;;;;;;20.19;80.93262;968.9857;;;;
2019/09/15 10:10:23;;;;;;;6.3;5.7;;;;;;;20.26;80.54395;968.9244;;;;
2019/09/15 10:12:48;;;;;;;6.9;5.6;;;;;;;20.38;79.97949;968.9263;;;;
2019/09/15 10:15:13;;;;;;;5.9;5.3;;;;;;;20.51;79.97949;968.8759;;;;
2019/09/15 10:17:38;;;;;;;8;5.9;;;;;;;20.56;79.59863;968.8348;;;;
2019/09/15 10:20:03;;;;;;;9.1;5.6;;;;;;;20.68;79.16211;968.8423;;;;
2019/09/15 10:22:28;;;;;;;7.2;5.6;;;;;;;20.73;78.88672;968.8494;;;;
2019/09/15 10:24:53;;;;;;;6.3;5.6;;;;;;;20.69;78.72754;968.8414;;;;
2019/09/15 10:27:18;;;;;;;6.2;5.6;;;;;;;20.57;78.48145;968.7576;;;;
2019/09/15 10:29:43;;;;;;;6.4;5.2;;;;;;;20.71;78.12988;968.7495;;;;
2019/09/15 10:32:08;;;;;;;7.4;5.7;;;;;;;20.82;77.93652;968.7006;;;;
2019/09/15 10:34:34;;;;;;;5.6;5;;;;;;;20.91;77.81152;968.7224;;;;
2019/09/15 10:36:59;;;;;;;6.8;5.3;;;;;;;20.98;77.5293;968.6664;;;;
2019/09/15 10:39:24;;;;;;;6;5.1;;;;;;;21.05;76.51465;968.6476;;;;
2019/09/15 10:41:49;;;;;;;6.6;5.3;;;;;;;21.11;76.68066;968.662;;;;
2019/09/15 10:44:14;;;;;;;6.7;4.8;;;;;;;21.16;77.01953;968.636;;;;
2019/09/15 10:46:39;;;;;;;8.2;4.6;;;;;;;21.23;76.45117;968.575;;;;
2019/09/15 10:49:04;;;;;;;5.8;4.3;;;;;;;21.21;76.85059;968.6035;;;;
2019/09/15 10:51:29;;;;;;;4.7;4.2;;;;;;;21.29;76.1084;968.616;;;;
2019/09/15 10:53:54;;;;;;;6.4;5.4;;;;;;;21.48;76.08301;968.6371;;;;
2019/09/15 10:56:19;;;;;;;5.5;4.5;;;;;;;21.58;76.27734;968.6245;;;;
2019/09/15 10:58:44;;;;;;;5.5;4.6;;;;;;;21.51;74.68457;968.6483;;;;
2019/09/15 11:03:35;;;;;;;6.1;4.2;;;;;;;21.51;74.14063;968.6194;;;;
2019/09/15 11:06:00;;;;;;;7.3;5.8;;;;;;;21.57;74.7041;968.5573;;;;
2019/09/15 11:08:25;;;;;;;4.9;4.3;;;;;;;21.56;74.30273;968.588;;;;
2019/09/15 11:10:50;;;;;;;4.6;3.4;;;;;;;21.56;71.50488;968.5209;;;;
2019/09/15 11:13:16;;;;;;;4.6;3.4;;;;;;;21.69;70.81836;968.5189;;;;
2019/09/15 11:15:41;;;;;;;4.2;2.8;;;;;;;21.92;70.22949;968.4182;;;;
2019/09/15 11:18:06;;;;;;;4.3;2.8;;;;;;;21.79;69.98535;968.4073;;;;
2019/09/15 11:20:31;;;;;;;5.8;3.2;;;;;;;21.82;70.26074;968.3663;;;;
2019/09/15 11:22:57;;;;;;;4.4;2.5;;;;;;;21.86;69.19336;968.3326;;;;
2019/09/15 11:25:22;;;;;;;2.9;2.6;;;;;;;22.03;68.92285;968.3274;;;;
2019/09/15 11:27:47;;;;;;;3.4;2.4;;;;;;;22.22;68.23242;968.2388;;;;
2019/09/15 11:30:12;;;;;;;5.9;3.6;;;;;;;22.18;67.22168;968.2255;;;;
2019/09/15 11:32:37;;;;;;;3.4;2.4;;;;;;;22.11;67.69531;968.202;;;;
2019/09/15 11:35:02;;;;;;;2.3;1.9;;;;;;;22.34;66.06348;968.2058;;;;
2019/09/15 11:37:28;;;;;;;3.4;2.4;;;;;;;22.3;66.87402;968.1881;;;;
2019/09/15 11:41:42;;;;;;;2.9;2.6;;;;;;;22.36;67.79199;968.1468;;;;
2019/09/15 11:44:08;;;;;;;3;2.7;;;;;;;22.37;66.82422;968.1448;;;;
2019/09/15 11:46:32;;;;;;;3.6;2.4;;;;;;;22.27;67.54199;968.098;;;;
2019/09/15 11:48:58;;;;;;;3.5;2.5;;;;;;;22.36;67.59082;968.0396;;;;
2019/09/15 11:51:23;;;;;;;3.7;2.9;;;;;;;22.37;66.68262;967.9562;;;;
2019/09/15 11:53:48;;;;;;;3.3;2;;;;;;;22.75;65.76953;967.9683;;;;
2019/09/15 11:56:13;;;;;;;3.1;2.7;;;;;;;22.64;66.4502;967.9183;;;;
2019/09/15 11:58:38;;;;;;;2.8;2.5;;;;;;;22.7;67.50098;967.9307;;;;
2019/09/15 12:01:03;;;;;;;2.6;2.4;;;;;;;22.8;65.89648;967.812;;;;
2019/09/15 12:03:28;;;;;;;3.3;2.2;;;;;;;22.76;66.68262;967.8374;;;;
2019/09/15 12:05:53;;;;;;;2.4;2.2;;;;;;;23.06;65.27051;967.8147;;;;
2019/09/15 12:08:19;;;;;;;2.6;2.2;;;;;;;22.88;66.62988;967.8041;;;;
2019/09/15 12:10:44;;;;;;;4.8;2.6;;;;;;;22.88;66.68945;967.7698;;;;
2019/09/15 12:13:09;;;;;;;2.9;2.5;;;;;;;22.95;66.5918;967.7534;;;;
2019/09/15 12:15:34;;;;;;;3.2;2.4;;;;;;;22.97;66.69043;967.7756;;;;
2019/09/15 12:17:59;;;;;;;3.9;2.5;;;;;;;23.17;66.21094;967.8145;;;;
2019/09/15 12:20:24;;;;;;;3.9;2.2;;;;;;;23.21;66.6543;967.7712;;;;
2019/09/15 12:22:49;;;;;;;3.2;2.5;;;;;;;23.06;66.39648;967.6951;;;;
2019/09/15 12:25:14;;;;;;;2.3;2.1;;;;;;;23.01;67.43066;967.6975;;;;
2019/09/15 12:27:39;;;;;;;4.6;2.6;;;;;;;23.03;66.96973;967.6964;;;;
2019/09/15 12:30:05;;;;;;;3.3;2.3;;;;;;;22.8;67.75391;967.6516;;;;
2019/09/15 12:32:30;;;;;;;3.5;2.1;;;;;;;23.16;66.17285;967.6136;;;;
2019/09/15 12:34:55;;;;;;;2.6;2.3;;;;;;;23.14;66.21875;967.543;;;;
2019/09/15 12:37:20;;;;;;;2.6;2.1;;;;;;;23.45;65.375;967.5297;;;;
2019/09/15 12:39:45;;;;;;;3.4;2.1;;;;;;;23.41;64.96582;967.4824;;;;
2019/09/15 12:42:10;;;;;;;2.5;1.9;;;;;;;23.53;64.85547;967.445;;;;
2019/09/15 12:44:35;;;;;;;2.4;1.9;;;;;;;23.87;63.43262;967.4579;;;;
2019/09/15 12:47:01;;;;;;;1.9;1.7;;;;;;;23.84;62.7168;967.4142;;;;
2019/09/15 12:49:26;;;;;;;3.1;1.6;;;;;;;24.13;62.7334;967.4141;;;;
2019/09/15 12:51:51;;;;;;;2.7;1.9;;;;;;;23.98;62.94922;967.3413;;;;
2019/09/15 12:54:16;;;;;;;2.4;1.9;;;;;;;24;63.4873;967.301;;;;
2019/09/15 12:56:42;;;;;;;2.9;2.2;;;;;;;23.99;62.83008;967.2938;;;;
2019/09/15 12:59:07;;;;;;;4.2;2.1;;;;;;;23.8;63.16113;967.2112;;;;
2019/09/15 13:01:32;;;;;;;2;1.8;;;;;;;23.72;64.22852;967.1353;;;;
2019/09/15 13:03:57;;;;;;;3.4;2.1;;;;;;;23.57;65.04883;967.1507;;;;
2019/09/15 13:06:22;;;;;;;2.6;2.2;;;;;;;23.56;66.03125;967.0809;;;;
2019/09/15 13:08:47;;;;;;;1.9;1.5;;;;;;;23.82;63.59082;967.0627;;;;
2019/09/15 13:11:12;;;;;;;3.3;1.9;;;;;;;23.95;63.68066;967.1057;;;;
2019/09/15 13:13:37;;;;;;;2;1.8;;;;;;;23.97;63.17285;967.0844;;;;
2019/09/15 13:16:03;;;;;;;2.6;1.7;;;;;;;23.99;63.60352;967.0941;;;;
2019/09/15 13:18:28;;;;;;;2.4;1.8;;;;;;;23.96;63.59961;967.063;;;;
2019/09/15 13:20:53;;;;;;;2.7;1.7;;;;;;;23.98;63.91016;967.1349;;;;
2019/09/15 13:23:26;;;;;;;2.3;1.8;;;;;;;24.4;61.92773;967.162;;;;
2019/09/15 13:25:44;;;;;;;4;2.8;;;;;;;24.08;63.26074;967.0527;;;;
2019/09/15 13:28:09;;;;;;;2.3;1.6;;;;;;;24.25;62.47656;967.0198;;;;
2019/09/15 13:30:34;;;;;;;2.3;2;;;;;;;23.98;63.37598;966.9891;;;;
2019/09/15 13:32:59;;;;;;;2.3;1.8;;;;;;;23.9;63.78027;966.9375;;;;
2019/09/15 13:35:25;;;;;;;2.5;1.9;;;;;;;23.84;64.41309;966.8591;;;;
2019/09/15 13:38:11;;;;;;;2.7;1.8;;;;;;;23.86;64.34473;966.86;;;;
2019/09/15 13:40:36;;;;;;;1.9;1.7;;;;;;;24.14;63.17285;966.8156;;;;
2019/09/15 13:43:01;;;;;;;1.8;1.7;;;;;;;24.2;62.98047;966.8127;;;;
2019/09/15 13:45:26;;;;;;;2.4;1.7;;;;;;;24.52;60.81543;966.7762;;;;
2019/09/15 13:47:51;;;;;;;1.5;1.4;;;;;;;24.53;59.87891;966.7584;;;;
2019/09/15 13:50:16;;;;;;;2.6;1.8;;;;;;;24.38;61.50879;966.7859;;;;
2019/09/15 13:52:41;;;;;;;2.5;1.7;;;;;;;24.11;62.61035;966.7989;;;;
2019/09/15 13:55:06;;;;;;;2.4;1.7;;;;;;;24.16;61.79883;966.7278;;;;
2019/09/15 13:57:32;;;;;;;3;2.1;;;;;;;23.94;63.49023;966.7094;;;;
2019/09/15 13:59:57;;;;;;;2.2;1.5;;;;;;;24.19;63.37012;966.7736;;;;
2019/09/15 14:02:22;;;;;;;1.6;1.5;;;;;;;24.49;60.77637;966.7011;;;;
2019/09/15 14:04:47;;;;;;;1.9;1.6;;;;;;;24.31;62.11719;966.6333;;;;
2019/09/15 14:07:12;;;;;;;3.6;1.9;;;;;;;24.11;62.08984;966.6031;;;;
2019/09/15 14:09:37;;;;;;;2.1;1.6;;;;;;;24.23;61.4541;966.5511;;;;
2019/09/15 14:12:02;;;;;;;2.1;1.5;;;;;;;24.69;60.04199;966.5195;;;;
2019/09/15 14:14:27;;;;;;;2.5;1.6;;;;;;;24.48;60.59668;966.4903;;;;
2019/09/15 14:16:52;;;;;;;3.2;1.5;;;;;;;24.24;62.98535;966.4294;;;;
2019/09/15 14:19:17;;;;;;;1.6;1.5;;;;;;;24.21;61.67578;966.4166;;;;
2019/09/15 14:21:42;;;;;;;3.2;1.4;;;;;;;24.38;60.68848;966.3652;;;;
2019/09/15 14:24:08;;;;;;;1.5;1.4;;;;;;;24.82;58.69336;966.3791;;;;
2019/09/15 14:26:33;;;;;;;1.7;1.6;;;;;;;24.61;59.61523;966.4012;;;;
2019/09/15 14:28:58;;;;;;;2.9;1.3;;;;;;;24.8;57.91699;966.3906;;;;
2019/09/15 14:31:23;;;;;;;3.1;1.3;;;;;;;24.59;59.41211;966.3835;;;;
2019/09/15 14:33:48;;;;;;;1.6;1.5;;;;;;;24.6;59.26953;966.3133;;;;
2019/09/15 14:36:13;;;;;;;2.3;1.3;;;;;;;24.83;57.45801;966.2698;;;;
2019/09/15 14:38:38;;;;;;;1.9;1.4;;;;;;;25.04;56.24707;966.2541;;;;
2019/09/15 14:41:03;;;;;;;1.5;1.3;;;;;;;24.8;57.08496;966.2589;;;;
2019/09/15 14:43:28;;;;;;;3.7;1.4;;;;;;;25;56.88379;966.2861;;;;
2019/09/15 14:45:53;;;;;;;1.7;1.4;;;;;;;24.92;57.81445;966.183;;;;
2019/09/15 14:48:19;;;;;;;1.7;1.3;;;;;;;24.72;59.02441;966.1584;;;;
2019/09/15 14:50:44;;;;;;;1.7;1.5;;;;;;;24.62;58.57227;966.1335;;;;
2019/09/15 14:53:09;;;;;;;2.9;1.4;;;;;;;24.61;58.90234;966.0786;;;;
2019/09/15 14:55:35;;;;;;;1.6;1.4;;;;;;;24.69;57.86719;966.0924;;;;
2019/09/15 14:58:00;;;;;;;1.3;1.2;;;;;;;24.87;57.39063;966.0601;;;;
2019/09/15 15:00:25;;;;;;;1.6;1.2;;;;;;;24.63;57.82324;966.046;;;;
2019/09/15 15:02:50;;;;;;;2.2;1.2;;;;;;;24.89;56.74023;966.0982;;;;
2019/09/15 15:05:15;;;;;;;1.9;1.3;;;;;;;24.84;57.17383;966.0502;;;;
2019/09/15 15:07:41;;;;;;;2.1;1.8;;;;;;;24.77;58.53125;966.003;;;;
2019/09/15 15:10:06;;;;;;;1.8;1.5;;;;;;;24.84;57.05469;965.9942;;;;
2019/09/15 15:12:31;;;;;;;2.5;1.4;;;;;;;24.98;56.54883;965.9781;;;;
2019/09/15 15:14:56;;;;;;;2;1.2;;;;;;;24.77;57.42578;965.9472;;;;
2019/09/15 15:17:21;;;;;;;2;1.2;;;;;;;24.71;57.88184;965.9128;;;;